Daily Summary

Last 30 Days

Daily Data | America/Los_Angeles
as of 2/7/23 9:04 AM PST
Date Daily Max Temp (°F) Daily Min Temp (°F) Daily Rain (In) Season Precip (In) Daily Solar Rad (Cal/cm2) Daily ETo (in) Wind Spd (mph) Daily Max Wind (mph) Max Wind Dir (°) Dew Pt (°F) Max RH (%) Min RH (%) Daily Leaf Wet Hrs (hrs) Soil Temp (°F) Soil Moist (%) Fuel Moisture (%) Max Fuel Moisture (%) Min Fuel Moisture (%) MinBV Day (V)
2/6/23 55.5 40.0 0.00 55.85 325 0.074 2.7 14.1 N | 6 34.8 89 37 2.3 48.6 33.0 27 40 11 12.4
2/5/23 51.4 39.6 0.23 55.85 247 0.047 1.8 15.3 SSW | 210 42.4 98 71 22.6 48.5 34.3 44 52 33 12.3
2/4/23 53.1 43.5 1.61 55.62 82 0.019 2.1 25.2 WSW | 249 48.3 98 92 24.0 48.5 34.4 48 50 43 12.3
2/3/23 51.7 41.8 0.54 54.01 88 0.022 1.1 11.9 NNE | 26 40.5 98 30 18.8 48.6 32.4 34 48 9 12.4
2/2/23 62.3 40.4 0.00 53.47 238 0.060 1.6 12.7 WNW | 285 27.4 69 22 0.0 48.7 29.4 10 13 2 12.4
2/1/23 59.6 39.1 0.00 53.47 289 0.068 1.4 7.5 WNW | 288 26.6 65 23 0.0 48.9 29.5 9 13 2 12.4
1/31/23 58.9 36.0 0.00 53.47 311 0.072 1.6 7.3 ESE | 106 18.7 62 15 0.0 49.0 29.7 10 14 2 12.4
1/30/23 55.0 34.0 0.00 53.47 305 0.073 2.3 14.1 NNW | 342 20.6 81 16 0.0 49.0 30.0 17 27 7 12.3
1/29/23 48.6 38.5 0.10 53.47 174 0.034 1.8 9.8 NNE | 13 37.7 96 60 13.2 49.0 30.1 28 42 15 12.4
1/28/23 57.1 41.6 0.00 53.37 298 0.066 1.2 9.4 N | 354 38.4 90 48 4.5 49.0 29.9 12 16 4 12.4
1/27/23 64.9 42.4 0.00 53.37 296 0.072 1.4 6.1 WSW | 250 35.7 82 33 0.0 49.0 30.1 9 13 0 12.4
1/26/23 67.4 45.8 0.00 53.37 292 0.074 1.5 8.9 NNE | 24 32.7 69 28 0.0 49.2 30.3 8 11 0 12.4
1/25/23 64.3 44.4 0.00 53.37 291 0.076 1.9 13.9 NNE | 19 30.8 65 23 0.0 49.4 30.4 8 13 0 12.4
1/24/23 64.3 39.2 0.00 53.37 290 0.071 1.6 7.5 SSW | 207 29.8 69 24 0.0 49.6 30.6 9 14 0 12.4
1/23/23 55.9 39.7 0.00 53.37 291 0.085 4.2 29.6 NNE | 27 22.3 70 20 0.0 49.8 31.0 10 12 3 12.4
1/22/23 53.3 40.8 0.00 53.37 278 0.070 2.8 21.7 NE | 37 28.3 86 24 0.0 50.1 31.4 13 18 7 12.4
1/21/23 59.2 36.8 0.00 53.37 281 0.063 1.5 6.7 SSW | 208 29.7 83 22 0.0 50.4 31.8 14 19 5 12.4
1/20/23 53.7 37.5 0.00 53.37 282 0.067 3.2 22.3 NNE | 28 26.2 80 28 0.0 50.6 32.5 15 21 8 12.3
1/19/23 50.8 37.6 0.16 53.37 255 0.054 3.1 17.0 SE | 142 35.4 97 44 9.9 50.8 33.6 31 45 19 12.3
1/18/23 53.6 35.6 0.06 53.21 230 0.047 1.3 10.1 S | 172 38.8 97 51 11.8 51.1 31.7 29 41 19 12.2
1/17/23 52.6 37.0 0.01 53.15 267 0.051 1.2 6.1 ENE | 57 37.7 98 44 18.0 51.3 34.5 42 55 25 12.0
1/16/23 46.6 38.7 1.22 53.14 99 0.020 2.0 15.7 W | 279 40.0 97 83 24.0 51.5 36.4 52 54 46 12.0
1/15/23 47.4 41.6 1.81 51.92 38 0.010 1.3 12.7 NE | 44 42.9 98 90 24.0 51.6 36.7 52 53 50 12.0
1/14/23 52.1 44.1 3.50 50.11 58 0.016 2.9 18.3 WSW | 238 48.1 98 91 24.0 51.6 37.4 49 51 44 12.0
1/13/23 53.6 46.0 1.45 46.61 25 0.008 2.5 17.2 SW | 225 46.5 98 53 16.8 51.6 35.7 39 47 24 12.1
1/12/23 59.1 47.1 0.00 45.16 190 0.043 1.3 9.9 NNE | 28 47.0 97 60 13.8 51.5 34.8 39 51 26 12.1
1/11/23 52.3 44.0 0.91 45.16 73 0.019 1.8 11.1 N | 3 46.4 96 87 24.0 51.4 36.2 49 50 46 12.1
1/10/23 52.7 44.3 0.60 44.25 92 0.022 4.3 29.3 SW | 220 45.4 97 82 20.6 51.2 35.9 44 48 38 12.1
1/9/23 55.3 43.2 3.97 43.65 79 0.018 2.0 18.2 SSW | 202 50.0 98 86 21.8 51.1 37.0 44 48 37 12.1
1/8/23 56.6 47.2 1.30 39.68 125 0.030 2.0 19.2 S | 191 48.9 97 70 17.8 51.5 35.8 40 47 27 12.1
Max 67.4 47.2 3.97 55.85 325 0.085 4.3 29.6 - 50.0 98 92 24.0 51.6 37.4 52 55 50 12.4
Avg - - - - - - 2.0 - - 36.6 - - - 50.1 32.9 28 34 18 -
Min 46.6 34.0 0.00 39.68 25 0.008 1.1 6.1 - 18.7 62 15 0.0 48.5 29.4 8 11 0 12.0